Pickle Lake, Ontario

10:51 AM CDT on July 14, 2014 (GMT -0500)
Pickle Lake (CYPL) Elev 1266 ft | 51.45 °N, 90.21 °W | Change Station

Current weather conditions updated 4 minutes ago

Light Drizzle
Light Drizzle Mist
50 °F
Feels Like 50 °F
N
7
Wind Variable Wind from North

Today is forecast to be nearly the same temperature as yesterday. Occasional showers possible.

Today
High -- | Low -- °F
--% Chance of Precip.
Yesterday
High -- | Low -- °F
Precip. -- in
5:00 AM 9:12 PM
Waning Gibbous, 93% visible
Pressure 29.99 in
Visibility 4.0 miles
Clouds Overcast 800 ft
Dew Point 48 °F
Humidity 94%
Rainfall 0.00 in
Snow Depth Not available.
UV 2 out of 12
Pollen Not available.
Air Quality Not available.
Flu Activity Not available.
SPECI CYPL 141547Z 36006KT 280V040 4SM -DZ BR OVC008 10/09 A2995 RMK SF8 SLP154

More Conditions Fewer Conditions

Pressure 29.99 in
Visibility 4.0 miles
Clouds Overcast 800 ft
Dew Point 48 °F
Humidity 94%
Rainfall 0.00 in
Snow Depth Not available.
UV 2 out of 12
Pollen Not available.
Air Quality Not available.
Flu Activity Not available.
SPECI CYPL 141547Z 36006KT 280V040 4SM -DZ BR OVC008 10/09 A2995 RMK SF8 SLP154

More Conditions Fewer Conditions

10-Day Weather Forecast

Almanac

Astronomy

Jul. 14, 2014 Rise Set
Actual Time 5:00 AM CDT 9:12 PM CDT
Civil Twilight 4:15 AM CDT 9:56 PM CDT
Nautical Twilight 3:10 AM CDT 11:01 PM CDT
Astronomical Twilight 1:39 AM CDT 12:34 AM CDT
Moon 10:12 PM CDT 8:08 AM CDT
Length of Visible Light 17h 41m
Length of Day
16h 11m
Tomorrow will be 2m 10s shorter.
Waning Gibbous, 93% of the Moon is Illuminated
Today
Waning Gibbous
Jul 18
Last Quarter
Jul 26
New
Aug 3
First Quarter
Aug 10
Full

Today's Extremes

Country Highs Country Lows

Community

WunderPhotos

Upload Photos

1,733,697 photos uploaded!

WunderBlogs® & News

Nearby

Snow Depth

Not available.

Earthquake Activity

City Distance Mag. Time & Date
No recent earthquake activity has been reported nearby.
Minimum magnitude displayed is 2.5.

Coastal Water Temperatures

Place Temperature
No Stations Reporting

Nearby Weather Stations

There are no personal weather stations in this area.